Time;durP1;ratioP1;P1;durP2;ratioP2;P2;SDS_P1;SDS_P2;PMS_P1;PMS_P2;Temp;Humidity;BMP_temperature;BMP_pressure;BME280_temperature;BME280_humidity;BME280_pressure;Samples;Min_cycle;Max_cycle;Signal;HPM_P1;HPM_P2
2022/04/19 00:00:18;;;;;;;;;;;11.40;66.20;;;;;;5033023;28;20369;-70
2022/04/19 00:02:44;;;;;;;;;;;11.40;66.60;;;;;;5033170;28;19909;-71
2022/04/19 00:05:09;;;;;;;;;;;11.40;67.00;;;;;;5032780;28;19909;-69
2022/04/19 00:07:35;;;;;;;;;;;11.40;67.20;;;;;;5033457;28;19915;-69
2022/04/19 00:10:01;;;;;;;;;;;11.50;67.20;;;;;;5033055;28;19913;-70
2022/04/19 00:12:26;;;;;;;;;;;11.50;67.20;;;;;;5032909;28;20397;-70
2022/04/19 00:14:52;;;;;;;;;;;11.60;67.10;;;;;;5032657;28;20301;-69
2022/04/19 00:17:18;;;;;;;;;;;11.40;67.20;;;;;;5032977;28;20342;-70
2022/04/19 00:19:44;;;;;;;;;;;11.40;67.50;;;;;;5032302;28;19913;-70
2022/04/19 00:22:09;;;;;;;;;;;11.40;67.60;;;;;;5032716;28;20342;-70
2022/04/19 00:24:35;;;;;;;;;;;11.40;67.50;;;;;;5032268;28;19909;-70
2022/04/19 00:27:00;;;;;;;;;;;11.40;67.70;;;;;;5032445;28;19916;-70
2022/04/19 00:29:26;;;;;;;;;;;11.30;68.00;;;;;;5032222;28;19920;-70
2022/04/19 00:31:51;;;;;;;;;;;11.30;68.40;;;;;;5032659;28;19963;-70
2022/04/19 00:34:16;;;;;;;;;;;11.20;68.70;;;;;;5032322;28;19913;-69
2022/04/19 00:36:42;;;;;;;;;;;11.20;69.10;;;;;;5031872;28;20259;-70
2022/04/19 00:39:07;;;;;;;;;;;11.10;69.50;;;;;;5032277;28;20350;-69
2022/04/19 00:41:33;;;;;;;;;;;11.10;69.90;;;;;;5032420;28;20366;-69
2022/04/19 00:43:58;;;;;;;;;;;11.10;70.00;;;;;;5032325;28;19916;-70
2022/04/19 00:46:24;;;;;;;;;;;11.10;70.00;;;;;;5032267;28;19909;-70
2022/04/19 00:48:52;;;;;;;;;;;11.10;69.80;;;;;;5032523;28;20084;-70
2022/04/19 00:51:18;;;;;;;;;;;11.00;70.10;;;;;;5031912;28;20345;-70
2022/04/19 00:53:45;;;;;;;;;;;11.00;70.40;;;;;;5032214;28;20289;-70
2022/04/19 00:56:11;;;;;;;;;;;11.00;70.50;;;;;;5032227;28;19913;-70
2022/04/19 00:58:36;;;;;;;;;;;11.00;70.70;;;;;;5032224;28;19952;-70
2022/04/19 01:01:03;;;;;;;;;;;11.00;70.50;;;;;;5031828;28;19968;-70
2022/04/19 01:03:28;;;;;;;;;;;10.90;70.50;;;;;;5032327;28;19913;-70
2022/04/19 01:05:55;;;;;;;;;;;10.90;70.60;;;;;;5031915;28;19935;-69
2022/04/19 01:08:21;;;;;;;;;;;10.80;70.90;;;;;;5032393;28;19913;-70
2022/04/19 01:10:48;;;;;;;;;;;10.80;70.90;;;;;;5032147;28;19913;-70
2022/04/19 01:13:19;;;;;;;;;;;10.80;70.90;;;;;;5033470;28;19909;-70
2022/04/19 01:15:48;;;;;;;;;;;10.80;71.00;;;;;;5033344;28;20337;-70
2022/04/19 01:18:14;;;;;;;;;;;10.70;71.30;;;;;;5032842;28;19909;-70
2022/04/19 01:20:42;;;;;;;;;;;10.70;71.70;;;;;;5033024;28;20536;-70
2022/04/19 01:23:08;;;;;;;;;;;10.80;71.60;;;;;;5033370;28;19914;-70
2022/04/19 01:25:33;;;;;;;;;;;10.70;71.40;;;;;;5031983;28;20003;-70
2022/04/19 01:27:59;;;;;;;;;;;10.70;71.40;;;;;;5033546;28;19913;-70
2022/04/19 01:30:24;;;;;;;;;;;10.70;71.60;;;;;;5033000;28;19920;-70
2022/04/19 01:32:50;;;;;;;;;;;10.70;72.00;;;;;;5032016;28;20325;-70
2022/04/19 01:35:16;;;;;;;;;;;10.70;72.30;;;;;;5032405;28;19917;-70
2022/04/19 01:37:43;;;;;;;;;;;10.60;72.40;;;;;;5035338;28;19910;-70
2022/04/19 01:40:18;;;;;;;;;;;10.50;73.10;;;;;;5035674;28;19909;-69
2022/04/19 01:42:50;;;;;;;;;;;10.50;73.40;;;;;;5036098;28;19909;-70
2022/04/19 01:45:17;;;;;;;;;;;10.50;73.40;;;;;;5035853;28;19909;-70
2022/04/19 01:47:43;;;;;;;;;;;10.50;73.70;;;;;;5035613;28;19945;-70
2022/04/19 01:50:09;;;;;;;;;;;10.40;73.70;;;;;;5035203;28;19963;-70
2022/04/19 01:52:36;;;;;;;;;;;10.40;74.00;;;;;;5035525;28;19909;-69
2022/04/19 01:55:02;;;;;;;;;;;10.50;74.10;;;;;;5035320;28;20004;-70
2022/04/19 01:57:27;;;;;;;;;;;10.40;74.10;;;;;;5035449;28;19940;-69
2022/04/19 01:59:53;;;;;;;;;;;10.20;75.30;;;;;;5034933;28;20279;-70
2022/04/19 02:02:18;;;;;;;;;;;10.10;76.30;;;;;;5035269;28;19965;-69
2022/04/19 02:04:44;;;;;;;;;;;10.10;76.60;;;;;;5035146;28;19967;-69
2022/04/19 02:07:09;;;;;;;;;;;10.10;76.90;;;;;;5035180;28;19913;-69
2022/04/19 02:09:34;;;;;;;;;;;10.20;77.70;;;;;;5034834;28;19975;-69
2022/04/19 02:12:00;;;;;;;;;;;10.20;76.90;;;;;;5034883;28;20322;-69
2022/04/19 02:14:26;;;;;;;;;;;10.20;77.20;;;;;;5017556;28;19910;-70
2022/04/19 02:16:53;;;;;;;;;;;10.30;77.60;;;;;;5035148;28;19909;-69
2022/04/19 02:19:18;;;;;;;;;;;10.20;77.80;;;;;;5034606;28;19916;-69
2022/04/19 02:21:45;;;;;;;;;;;10.20;78.20;;;;;;5034642;28;19910;-70
2022/04/19 02:24:10;;;;;;;;;;;10.10;78.30;;;;;;5034771;28;19913;-70
2022/04/19 02:26:36;;;;;;;;;;;10.10;78.80;;;;;;5034882;28;19916;-70
2022/04/19 02:29:01;;;;;;;;;;;10.00;79.00;;;;;;5034836;28;19913;-70
2022/04/19 02:31:27;;;;;;;;;;;9.90;81.00;;;;;;5034618;28;19908;-69
2022/04/19 02:33:52;;;;;;;;;;;9.90;81.80;;;;;;5034584;28;19945;-69
2022/04/19 02:36:18;;;;;;;;;;;10.00;80.40;;;;;;5034184;28;19963;-70
2022/04/19 02:38:43;;;;;;;;;;;10.00;80.60;;;;;;5034762;28;19975;-69
2022/04/19 02:41:09;;;;;;;;;;;10.00;80.40;;;;;;5034470;28;19917;-69
2022/04/19 02:43:34;;;;;;;;;;;9.80;82.30;;;;;;5034455;28;20417;-70
2022/04/19 02:45:59;;;;;;;;;;;9.80;82.60;;;;;;5034466;28;20004;-69
2022/04/19 02:48:25;;;;;;;;;;;9.60;83.60;;;;;;5034534;28;20492;-69
2022/04/19 02:50:50;;;;;;;;;;;9.50;84.50;;;;;;5034222;28;19920;-69
2022/04/19 02:53:16;;;;;;;;;;;9.50;85.10;;;;;;5034557;28;20008;-70
2022/04/19 02:55:42;;;;;;;;;;;9.50;85.20;;;;;;5034667;28;20004;-69
2022/04/19 02:58:07;;;;;;;;;;;9.50;85.30;;;;;;5034184;28;20286;-69
2022/04/19 03:00:33;;;;;;;;;;;9.60;85.20;;;;;;5033917;28;19909;-70
2022/04/19 03:02:58;;;;;;;;;;;9.60;85.00;;;;;;5034210;28;19916;-69
2022/04/19 03:05:23;;;;;;;;;;;9.60;84.90;;;;;;5034046;28;19932;-69
2022/04/19 03:07:49;;;;;;;;;;;9.50;85.40;;;;;;5034390;28;19919;-70
2022/04/19 03:10:18;;;;;;;;;;;9.50;86.10;;;;;;5033583;28;20389;-69
2022/04/19 03:12:43;;;;;;;;;;;9.50;86.20;;;;;;5016149;28;19909;-68
2022/04/19 03:15:11;;;;;;;;;;;9.60;86.00;;;;;;5033991;28;20375;-70
2022/04/19 03:17:37;;;;;;;;;;;9.50;85.90;;;;;;5033915;28;19909;-69
2022/04/19 03:20:03;;;;;;;;;;;9.40;86.40;;;;;;5033799;28;19959;-70
2022/04/19 03:27:41;;;;;;;;;;;9.50;86.60;;;;;;5032886;28;19950;-69
2022/04/19 03:27:59;;;;;;;;;;;9.50;86.90;;;;;;5033757;28;19915;-69
2022/04/19 03:30:24;;;;;;;;;;;9.60;86.70;;;;;;5033327;28;20362;-70
2022/04/19 03:32:52;;;;;;;;;;;9.60;86.50;;;;;;5033823;28;20465;-70
2022/04/19 03:35:18;;;;;;;;;;;9.60;86.40;;;;;;5067425;23;19929;-69
2022/04/19 03:37:44;;;;;;;;;;;9.60;86.60;;;;;;5062285;28;20007;-68
2022/04/19 03:40:10;;;;;;;;;;;9.60;86.80;;;;;;5053289;28;20347;-68
2022/04/19 03:42:35;;;;;;;;;;;9.50;86.90;;;;;;5053465;28;20398;-67
2022/04/19 03:45:01;;;;;;;;;;;9.50;87.20;;;;;;5053360;28;19908;-67
2022/04/19 03:47:26;;;;;;;;;;;9.50;87.50;;;;;;5052209;28;19909;-68
2022/04/19 03:49:51;;;;;;;;;;;9.40;87.70;;;;;;5053021;28;19971;-68
2022/04/19 03:52:17;;;;;;;;;;;9.30;88.50;;;;;;5052015;28;20039;-68
2022/04/19 03:54:42;;;;;;;;;;;9.30;89.00;;;;;;5052839;28;19909;-68
2022/04/19 03:57:08;;;;;;;;;;;9.30;89.30;;;;;;5053281;28;19935;-68
2022/04/19 03:59:35;;;;;;;;;;;9.20;89.80;;;;;;5052579;28;19978;-67
2022/04/19 04:02:02;;;;;;;;;;;9.20;90.10;;;;;;5052006;28;19962;-68
2022/04/19 04:04:30;;;;;;;;;;;9.20;90.20;;;;;;5052810;28;19955;-68
2022/04/19 04:06:59;;;;;;;;;;;9.30;90.30;;;;;;5053086;28;19962;-67
2022/04/19 04:09:25;;;;;;;;;;;9.30;90.10;;;;;;5052853;28;20020;-68
2022/04/19 04:11:51;;;;;;;;;;;9.40;90.00;;;;;;5051856;28;19909;-68
2022/04/19 04:14:16;;;;;;;;;;;9.40;90.00;;;;;;5052801;28;19955;-67
2022/04/19 04:16:42;;;;;;;;;;;9.40;90.00;;;;;;5052919;28;20011;-69
2022/04/19 04:19:07;;;;;;;;;;;9.30;90.20;;;;;;5051161;28;19920;-69
2022/04/19 04:21:32;;;;;;;;;;;9.10;90.90;;;;;;5052980;28;20003;-68
2022/04/19 04:23:58;;;;;;;;;;;9.10;91.20;;;;;;5052704;28;19952;-68
2022/04/19 04:26:23;;;;;;;;;;;9.10;91.30;;;;;;5052639;28;19908;-68
2022/04/19 04:28:49;;;;;;;;;;;9.10;91.40;;;;;;5051404;28;19925;-68
2022/04/19 04:31:14;;;;;;;;;;;9.00;91.60;;;;;;5056573;28;20004;-68
2022/04/19 04:33:40;;;;;;;;;;;9.00;91.70;;;;;;5053132;28;19963;-68
2022/04/19 04:36:05;;;;;;;;;;;9.10;91.70;;;;;;5052221;28;20381;-67
2022/04/19 04:38:31;;;;;;;;;;;9.10;91.70;;;;;;5052540;28;19908;-67
2022/04/19 04:40:56;;;;;;;;;;;9.10;91.80;;;;;;5052259;28;19942;-68
2022/04/19 04:43:22;;;;;;;;;;;9.00;91.90;;;;;;5052886;28;19913;-67
2022/04/19 04:49:35;;;;;;;;;;;9.10;91.80;;;;;;5052401;28;19944;-66
2022/04/19 04:51:19;;;;;;;;;;;9.00;91.90;;;;;;5053579;28;19935;-67
2022/04/19 04:53:45;;;;;;;;;;;9.00;91.90;;;;;;5053690;28;19909;-67
2022/04/19 04:56:10;;;;;;;;;;;8.90;91.90;;;;;;5053838;28;19909;-66
2022/04/19 04:58:35;;;;;;;;;;;8.90;91.90;;;;;;5053087;28;19956;-67
2022/04/19 05:01:01;;;;;;;;;;;8.90;92.10;;;;;;5058615;28;19917;-68
2022/04/19 05:03:26;;;;;;;;;;;8.90;92.30;;;;;;5066384;28;19958;-68
2022/04/19 05:05:52;;;;;;;;;;;9.00;92.30;;;;;;5082986;28;19949;-67
2022/04/19 05:08:18;;;;;;;;;;;9.00;92.10;;;;;;5073019;28;20370;-67
2022/04/19 05:10:44;;;;;;;;;;;9.00;92.20;;;;;;5070675;28;19924;-68
2022/04/19 05:13:09;;;;;;;;;;;9.10;92.20;;;;;;5071423;28;19916;-68
2022/04/19 05:15:35;;;;;;;;;;;9.10;92.20;;;;;;5070819;28;19908;-67
2022/04/19 05:18:00;;;;;;;;;;;9.00;92.30;;;;;;5072404;28;19914;-67
2022/04/19 05:20:26;;;;;;;;;;;9.10;92.30;;;;;;5070320;28;19943;-67
2022/04/19 05:22:51;;;;;;;;;;;9.10;92.20;;;;;;5071888;28;19935;-68
2022/04/19 05:25:17;;;;;;;;;;;9.10;92.30;;;;;;5073197;28;19912;-68
2022/04/19 05:27:43;;;;;;;;;;;9.20;92.20;;;;;;5071422;28;19909;-69
2022/04/19 05:30:09;;;;;;;;;;;9.20;92.10;;;;;;5071036;28;19924;-67
2022/04/19 05:32:34;;;;;;;;;;;9.20;91.90;;;;;;5083073;28;19961;-69
2022/04/19 05:34:59;;;;;;;;;;;9.30;91.90;;;;;;5092536;28;19916;-68
2022/04/19 05:37:26;;;;;;;;;;;9.30;91.80;;;;;;5091697;28;19915;-68
2022/04/19 05:39:51;;;;;;;;;;;9.30;91.90;;;;;;5090578;28;19965;-69
2022/04/19 05:42:17;;;;;;;;;;;9.30;91.90;;;;;;5091863;28;19999;-69
2022/04/19 05:44:43;;;;;;;;;;;9.30;91.80;;;;;;5091333;28;20746;-68
2022/04/19 05:47:09;;;;;;;;;;;9.30;91.90;;;;;;5073725;28;19919;-68
2022/04/19 05:49:35;;;;;;;;;;;9.30;91.80;;;;;;5071297;28;20020;-67
2022/04/19 05:52:01;;;;;;;;;;;9.40;91.60;;;;;;5071313;28;19916;-69
2022/04/19 05:54:27;;;;;;;;;;;9.50;91.60;;;;;;5070116;28;20599;-69
2022/04/19 05:56:52;;;;;;;;;;;9.50;91.60;;;;;;5068538;28;19955;-67
2022/04/19 05:59:18;;;;;;;;;;;9.60;91.40;;;;;;5069871;28;19913;-68
2022/04/19 06:07:12;;;;;;;;;;;9.70;90.50;;;;;;5070358;28;19962;-68
2022/04/19 06:09:38;;;;;;;;;;;9.80;90.40;;;;;;5071122;28;20437;-69
2022/04/19 06:12:04;;;;;;;;;;;9.90;90.20;;;;;;5070270;28;19991;-69
2022/04/19 06:14:29;;;;;;;;;;;10.00;88.70;;;;;;5071533;28;20008;-69
2022/04/19 06:16:54;;;;;;;;;;;10.10;88.20;;;;;;5071790;28;19908;-69
2022/04/19 06:19:20;;;;;;;;;;;10.10;87.40;;;;;;5072185;28;19948;-66
2022/04/19 06:21:45;;;;;;;;;;;10.20;87.10;;;;;;5073528;28;20305;-69
2022/04/19 06:24:11;;;;;;;;;;;10.20;86.60;;;;;;5077474;28;19909;-69
2022/04/19 06:26:36;;;;;;;;;;;10.30;86.20;;;;;;5076004;28;19915;-69
2022/04/19 06:29:03;;;;;;;;;;;10.40;85.40;;;;;;5076097;28;19913;-68
2022/04/19 06:31:28;;;;;;;;;;;10.60;84.20;;;;;;5075630;28;19915;-69
2022/04/19 06:33:53;;;;;;;;;;;10.60;82.00;;;;;;5075269;28;19909;-69
2022/04/19 06:36:19;;;;;;;;;;;10.80;81.10;;;;;;5072803;28;20281;-67
2022/04/19 06:38:44;;;;;;;;;;;10.90;80.10;;;;;;5074176;28;19915;-68
2022/04/19 06:41:11;;;;;;;;;;;11.00;79.10;;;;;;5074043;28;19908;-70
2022/04/19 06:43:37;;;;;;;;;;;11.10;78.40;;;;;;5074085;28;20286;-67
2022/04/19 06:46:02;;;;;;;;;;;11.10;77.30;;;;;;5073877;28;19909;-68
2022/04/19 06:48:29;;;;;;;;;;;11.20;77.30;;;;;;5073924;28;20304;-68
2022/04/19 06:50:54;;;;;;;;;;;11.30;77.10;;;;;;5073447;28;19960;-67
2022/04/19 06:53:20;;;;;;;;;;;11.40;76.60;;;;;;5073316;28;19963;-69
2022/04/19 06:55:45;;;;;;;;;;;11.50;76.60;;;;;;5072290;28;19908;-66
2022/04/19 06:58:11;;;;;;;;;;;11.50;76.10;;;;;;5073365;28;19940;-68
2022/04/19 07:00:36;;;;;;;;;;;11.70;75.80;;;;;;5072916;28;19963;-67
2022/04/19 07:03:01;;;;;;;;;;;11.80;74.80;;;;;;5071699;28;19964;-67
2022/04/19 07:05:27;;;;;;;;;;;11.80;73.80;;;;;;5072946;28;19915;-67
2022/04/19 07:07:52;;;;;;;;;;;11.80;73.50;;;;;;5073079;28;19909;-68
2022/04/19 07:10:18;;;;;;;;;;;11.70;73.10;;;;;;5072754;28;19920;-67
2022/04/19 07:12:44;;;;;;;;;;;11.80;73.10;;;;;;5072895;28;19962;-68
2022/04/19 07:15:10;;;;;;;;;;;11.90;73.10;;;;;;5073090;28;19996;-68
2022/04/19 07:17:36;;;;;;;;;;;12.10;72.90;;;;;;5072937;28;19909;-67
2022/04/19 07:28:14;;;;;;;;;;;12.50;70.10;;;;;;5072666;28;20570;-68
2022/04/19 07:30:40;;;;;;;;;;;12.60;69.30;;;;;;5072354;28;19916;-68
2022/04/19 07:33:05;;;;;;;;;;;12.70;69.10;;;;;;5071890;28;19915;-68
2022/04/19 07:35:31;;;;;;;;;;;12.80;68.80;;;;;;5043554;28;803085;-69
2022/04/19 07:37:56;;;;;;;;;;;12.90;68.90;;;;;;5073586;28;20349;-68
2022/04/19 07:40:22;;;;;;;;;;;13.00;68.20;;;;;;5073628;28;20353;-68
2022/04/19 07:42:48;;;;;;;;;;;13.10;67.50;;;;;;5073261;28;19970;-69
2022/04/19 07:45:13;;;;;;;;;;;13.10;67.00;;;;;;5073486;28;19912;-68
2022/04/19 07:47:39;;;;;;;;;;;13.10;66.70;;;;;;5073677;28;19915;-67
2022/04/19 07:50:04;;;;;;;;;;;13.30;66.70;;;;;;5073000;28;20355;-68
2022/04/19 07:52:30;;;;;;;;;;;13.40;66.40;;;;;;5073522;28;19908;-68
2022/04/19 07:54:55;;;;;;;;;;;13.50;66.10;;;;;;5073492;28;19915;-67
2022/04/19 07:57:21;;;;;;;;;;;13.60;65.90;;;;;;5073299;28;19909;-69
2022/04/19 07:59:47;;;;;;;;;;;13.70;65.30;;;;;;5073209;28;20007;-69
2022/04/19 08:02:14;;;;;;;;;;;13.80;64.50;;;;;;5073557;28;19908;-68
2022/04/19 08:04:40;;;;;;;;;;;13.80;64.10;;;;;;5073126;28;20397;-67
2022/04/19 08:07:06;;;;;;;;;;;13.90;63.60;;;;;;5073633;28;19969;-68
2022/04/19 08:09:32;;;;;;;;;;;14.00;63.60;;;;;;5072783;28;19912;-68
2022/04/19 08:11:58;;;;;;;;;;;14.10;63.10;;;;;;5073211;28;19908;-67
2022/04/19 08:14:23;;;;;;;;;;;14.30;62.70;;;;;;5072943;28;19920;-67
2022/04/19 08:16:49;;;;;;;;;;;14.40;62.10;;;;;;5072839;28;19923;-67
2022/04/19 08:19:14;;;;;;;;;;;14.50;61.20;;;;;;5072890;28;19915;-66
2022/04/19 08:21:40;;;;;;;;;;;14.50;60.60;;;;;;5073008;28;20361;-68
2022/04/19 08:24:05;;;;;;;;;;;14.60;60.60;;;;;;5073308;28;20296;-68
2022/04/19 08:26:32;;;;;;;;;;;14.80;59.60;;;;;;5073056;28;20339;-67
2022/04/19 08:28:57;;;;;;;;;;;14.80;58.70;;;;;;5073949;28;19991;-67
2022/04/19 08:31:22;;;;;;;;;;;14.80;58.40;;;;;;5073641;28;20003;-67
2022/04/19 08:33:48;;;;;;;;;;;14.70;58.50;;;;;;5073006;28;20554;-68
2022/04/19 08:36:13;;;;;;;;;;;14.80;58.20;;;;;;5072782;28;19924;-67
2022/04/19 08:38:39;;;;;;;;;;;14.80;58.40;;;;;;5072788;28;19912;-69
2022/04/19 08:41:04;;;;;;;;;;;15.00;58.50;;;;;;5072193;28;19908;-67
2022/04/19 08:43:30;;;;;;;;;;;14.90;57.20;;;;;;5072938;28;19943;-69
2022/04/19 08:45:55;;;;;;;;;;;15.00;57.50;;;;;;5072648;28;19916;-69
2022/04/19 08:48:24;;;;;;;;;;;15.20;57.80;;;;;;5073055;28;20285;-67
2022/04/19 08:50:51;;;;;;;;;;;15.20;56.30;;;;;;5072194;28;20003;-67
2022/04/19 08:58:45;;;;;;;;;;;15.50;55.60;;;;;;5072950;28;20559;-69
2022/04/19 09:01:10;;;;;;;;;;;15.60;55.90;;;;;;5072415;28;20006;-68
2022/04/19 09:03:37;;;;;;;;;;;15.80;55.80;;;;;;5072197;28;19948;-67
2022/04/19 09:06:03;;;;;;;;;;;16.00;55.50;;;;;;5072682;28;19908;-67
2022/04/19 09:08:29;;;;;;;;;;;16.00;54.40;;;;;;5072903;28;19913;-67
2022/04/19 09:11:08;;;;;;;;;;;15.60;54.80;;;;;;5072079;28;19913;-68
2022/04/19 09:13:33;;;;;;;;;;;15.60;55.40;;;;;;5072694;28;19909;-67
2022/04/19 09:16:03;;;;;;;;;;;15.70;55.00;;;;;;5072275;28;19908;-70
2022/04/19 09:18:33;;;;;;;;;;;15.80;55.20;;;;;;5071953;28;20387;-67
2022/04/19 09:21:03;;;;;;;;;;;16.00;55.40;;;;;;5070941;28;20262;-67
2022/04/19 09:23:30;;;;;;;;;;;16.20;55.30;;;;;;5072296;28;20003;-68
2022/04/19 09:25:56;;;;;;;;;;;16.30;55.20;;;;;;5072219;28;19909;-67
2022/04/19 09:28:22;;;;;;;;;;;16.40;55.20;;;;;;5072135;28;20003;-68
2022/04/19 09:30:49;;;;;;;;;;;16.50;54.40;;;;;;5071487;28;19916;-68
2022/04/19 09:33:15;;;;;;;;;;;16.30;54.20;;;;;;5072231;28;19909;-69
2022/04/19 09:35:47;;;;;;;;;;;16.50;54.80;;;;;;5080582;23;20078;-69
2022/04/19 09:38:13;;;;;;;;;;;16.70;55.10;;;;;;5040960;28;19916;-69
2022/04/19 09:40:41;;;;;;;;;;;16.70;55.20;;;;;;5032065;28;20004;-70
2022/04/19 09:43:11;;;;;;;;;;;16.50;55.10;;;;;;5031978;28;19917;-71
2022/04/19 09:45:52;;;;;;;;;;;16.70;55.70;;;;;;5031487;28;20378;-71
2022/04/19 09:48:21;;;;;;;;;;;16.80;55.40;;;;;;5031607;28;20352;-71
2022/04/19 09:50:51;;;;;;;;;;;17.00;55.50;;;;;;5031279;28;19932;-71
2022/04/19 09:53:21;;;;;;;;;;;17.20;55.00;;;;;;5032278;28;19909;-71
2022/04/19 09:55:52;;;;;;;;;;;17.30;54.30;;;;;;5031468;28;19913;-71
2022/04/19 09:58:18;;;;;;;;;;;17.40;54.40;;;;;;5035968;28;20007;-70
2022/04/19 10:00:45;;;;;;;;;;;17.50;54.50;;;;;;5035863;28;19909;-70
2022/04/19 10:08:40;;;;;;;;;;;17.50;55.10;;;;;;5035157;28;20070;-69
2022/04/19 10:11:06;;;;;;;;;;;17.50;54.40;;;;;;5034835;28;19963;-70
2022/04/19 10:13:32;;;;;;;;;;;17.60;54.40;;;;;;5035099;28;19919;-71
2022/04/19 10:15:58;;;;;;;;;;;17.50;53.90;;;;;;5034841;28;19909;-71
2022/04/19 10:18:23;;;;;;;;;;;17.30;53.90;;;;;;5034922;28;19916;-71
2022/04/19 10:20:53;;;;;;;;;;;17.30;54.60;;;;;;5034634;28;19909;-71
2022/04/19 10:23:19;;;;;;;;;;;17.50;55.10;;;;;;5035018;28;19972;-71
2022/04/19 10:25:46;;;;;;;;;;;17.60;55.20;;;;;;5035330;28;19909;-71
2022/04/19 10:28:12;;;;;;;;;;;17.70;55.10;;;;;;5035326;28;19941;-71
2022/04/19 10:30:39;;;;;;;;;;;17.40;54.40;;;;;;5035157;28;19913;-71
2022/04/19 10:33:23;;;;;;;;;;;17.20;54.90;;;;;;5034994;28;19955;-72
2022/04/19 10:36:27;;;;;;;;;;;17.10;55.80;;;;;;5034364;28;19921;-70
2022/04/19 10:39:11;;;;;;;;;;;17.10;55.80;;;;;;4992977;28;19997;-71
2022/04/19 10:41:56;;;;;;;;;;;17.20;55.90;;;;;;4992765;28;19949;-70
2022/04/19 10:44:25;;;;;;;;;;;17.20;55.90;;;;;;4992314;28;20398;-70
2022/04/19 10:47:08;;;;;;;;;;;17.20;56.30;;;;;;4992880;28;19910;-71
2022/04/19 10:49:45;;;;;;;;;;;17.40;56.30;;;;;;4992500;28;19918;-70
2022/04/19 10:52:29;;;;;;;;;;;17.40;55.70;;;;;;4992665;28;20371;-71
2022/04/19 10:55:02;;;;;;;;;;;17.30;55.90;;;;;;4993032;28;19953;-70
2022/04/19 11:00:22;;;;;;;;;;;17.40;56.10;;;;;;4992298;28;20021;-71
2022/04/19 11:03:00;;;;;;;;;;;17.50;56.50;;;;;;4994155;28;19910;-71
2022/04/19 11:05:44;;;;;;;;;;;17.50;56.40;;;;;;4994934;28;19965;-71
2022/04/19 11:08:18;;;;;;;;;;;17.60;56.10;;;;;;4991250;28;19914;-71
2022/04/19 11:10:44;;;;;;;;;;;17.50;56.10;;;;;;5031520;28;19920;-71
2022/04/19 11:13:09;;;;;;;;;;;17.50;56.30;;;;;;5033871;28;20310;-71
2022/04/19 11:15:38;;;;;;;;;;;17.60;56.50;;;;;;5034119;28;20366;-71
2022/04/19 11:18:39;;;;;;;;;;;17.50;56.50;;;;;;5033991;28;19913;-71
2022/04/19 11:21:12;;;;;;;;;;;17.30;57.00;;;;;;4991653;28;19913;-71
2022/04/19 11:23:41;;;;;;;;;;;17.40;57.10;;;;;;5027253;28;19983;-71
2022/04/19 11:26:08;;;;;;;;;;;17.40;56.00;;;;;;5033531;28;19913;-71
2022/04/19 11:28:33;;;;;;;;;;;17.40;55.90;;;;;;5034002;28;20057;-70
2022/04/19 11:31:00;;;;;;;;;;;17.40;55.90;;;;;;5048844;28;20011;-71
2022/04/19 11:33:26;;;;;;;;;;;17.50;55.90;;;;;;5033703;28;19940;-71
2022/04/19 11:36:00;;;;;;;;;;;17.70;56.10;;;;;;5033583;28;19967;-71
2022/04/19 11:38:25;;;;;;;;;;;17.50;55.80;;;;;;5034105;28;19919;-71
2022/04/19 11:49:04;;;;;;;;;;;17.10;55.80;;;;;;5033383;28;20397;-70
2022/04/19 11:51:32;;;;;;;;;;;17.10;55.90;;;;;;5033744;28;19952;-70
2022/04/19 11:53:57;;;;;;;;;;;17.20;56.40;;;;;;5033489;28;19999;-71
2022/04/19 11:56:23;;;;;;;;;;;17.10;56.00;;;;;;5048734;28;20003;-70
2022/04/19 11:58:52;;;;;;;;;;;17.10;56.20;;;;;;5033425;28;19932;-70
2022/04/19 12:01:18;;;;;;;;;;;17.20;56.70;;;;;;5032837;28;20350;-71
2022/04/19 12:03:43;;;;;;;;;;;17.30;56.60;;;;;;5033498;28;19909;-71
2022/04/19 12:06:14;;;;;;;;;;;17.50;56.40;;;;;;5033079;28;20433;-71
2022/04/19 12:08:41;;;;;;;;;;;17.50;54.90;;;;;;5032847;28;20012;-71
2022/04/19 12:11:19;;;;;;;;;;;17.50;55.00;;;;;;5032826;28;19913;-70
2022/04/19 12:13:46;;;;;;;;;;;17.60;55.10;;;;;;5033039;28;19909;-71
2022/04/19 12:16:30;;;;;;;;;;;17.70;54.30;;;;;;5033300;28;20255;-71
2022/04/19 12:18:58;;;;;;;;;;;17.70;53.70;;;;;;5032392;28;20396;-71
2022/04/19 12:21:53;;;;;;;;;;;17.60;53.00;;;;;;5032933;28;20274;-71
2022/04/19 12:24:19;;;;;;;;;;;17.40;53.10;;;;;;4991040;28;19921;-70
2022/04/19 12:26:44;;;;;;;;;;;17.40;53.10;;;;;;4991095;28;19937;-71
2022/04/19 12:29:13;;;;;;;;;;;17.40;53.60;;;;;;4990461;28;20303;-70
2022/04/19 12:31:40;;;;;;;;;;;17.30;54.10;;;;;;4990644;28;19914;-70
2022/04/19 12:34:06;;;;;;;;;;;17.40;53.90;;;;;;4990451;28;19997;-70
2022/04/19 12:36:41;;;;;;;;;;;17.50;54.40;;;;;;4990099;28;20373;-70
2022/04/19 12:39:07;;;;;;;;;;;17.50;54.30;;;;;;4990347;28;19909;-71
2022/04/19 12:41:39;;;;;;;;;;;17.60;54.40;;;;;;4990865;28;20363;-71
2022/04/19 12:44:06;;;;;;;;;;;17.60;53.90;;;;;;4990779;28;19910;-70
2022/04/19 12:46:31;;;;;;;;;;;17.50;50.60;;;;;;4990693;28;19909;-71
2022/04/19 12:48:57;;;;;;;;;;;17.40;50.30;;;;;;4991362;28;19973;-71
2022/04/19 12:51:24;;;;;;;;;;;17.50;50.80;;;;;;4991917;28;20433;-71
2022/04/19 12:54:06;;;;;;;;;;;17.40;50.60;;;;;;4990835;28;20342;-71
2022/04/19 13:13:56;;;;;;;;;;;17.70;53.20;;;;;;5032181;28;19916;-70
2022/04/19 13:16:21;;;;;;;;;;;17.80;53.10;;;;;;5031664;28;19909;-70
2022/04/19 13:18:47;;;;;;;;;;;17.80;53.10;;;;;;5031656;28;19913;-69
2022/04/19 13:21:13;;;;;;;;;;;17.90;53.60;;;;;;5046827;28;19932;-69
2022/04/19 13:23:38;;;;;;;;;;;18.00;53.30;;;;;;5031736;28;20011;-70
2022/04/19 13:26:03;;;;;;;;;;;18.10;53.50;;;;;;5031340;28;20260;-70
2022/04/19 13:28:29;;;;;;;;;;;18.30;52.60;;;;;;5031738;28;19909;-70
2022/04/19 13:30:54;;;;;;;;;;;18.30;52.10;;;;;;5031423;28;20011;-70
2022/04/19 13:33:20;;;;;;;;;;;18.50;52.60;;;;;;5035854;28;19920;-70
2022/04/19 13:35:46;;;;;;;;;;;18.50;52.20;;;;;;5035863;28;19967;-72
2022/04/19 13:38:23;;;;;;;;;;;18.70;53.00;;;;;;5035581;28;20342;-71
2022/04/19 13:40:49;;;;;;;;;;;18.80;53.00;;;;;;5035517;28;19909;-71
2022/04/19 13:43:14;;;;;;;;;;;19.00;53.20;;;;;;5035193;28;19916;-71
2022/04/19 13:45:40;;;;;;;;;;;19.10;52.60;;;;;;5035617;28;19916;-71
2022/04/19 13:48:05;;;;;;;;;;;19.30;51.70;;;;;;5035761;28;20012;-70
2022/04/19 13:50:31;;;;;;;;;;;19.30;50.90;;;;;;5034957;28;20544;-71
2022/04/19 13:52:56;;;;;;;;;;;19.30;51.00;;;;;;5035500;28;20388;-70
2022/04/19 13:55:22;;;;;;;;;;;19.20;51.10;;;;;;5035437;28;19909;-70
2022/04/19 13:57:50;;;;;;;;;;;19.30;51.60;;;;;;5035391;28;19909;-73
2022/04/19 14:00:16;;;;;;;;;;;19.40;51.00;;;;;;5035154;28;19909;-69
2022/04/19 14:02:42;;;;;;;;;;;19.30;50.90;;;;;;5035215;28;19909;-69
2022/04/19 14:05:09;;;;;;;;;;;19.20;51.10;;;;;;5035178;28;19913;-70
2022/04/19 14:07:34;;;;;;;;;;;19.20;51.70;;;;;;5035132;28;19913;-71
2022/04/19 14:10:00;;;;;;;;;;;19.20;51.90;;;;;;5034606;28;20035;-70
2022/04/19 14:12:25;;;;;;;;;;;19.60;52.00;;;;;;5035129;28;19909;-71
2022/04/19 14:14:51;;;;;;;;;;;19.90;51.40;;;;;;5035158;28;19916;-70
2022/04/19 14:17:17;;;;;;;;;;;19.80;50.70;;;;;;5034596;28;20331;-70
2022/04/19 14:19:42;;;;;;;;;;;19.80;50.80;;;;;;5034464;28;19932;-71
2022/04/19 14:22:08;;;;;;;;;;;19.80;51.10;;;;;;5035017;28;19913;-71
2022/04/19 14:24:33;;;;;;;;;;;20.00;50.90;;;;;;5034893;28;20001;-71
2022/04/19 14:26:58;;;;;;;;;;;20.10;50.40;;;;;;5034637;28;19910;-71
2022/04/19 14:34:52;;;;;;;;;;;20.50;50.60;;;;;;5035026;28;20039;-70
2022/04/19 14:37:18;;;;;;;;;;;20.70;50.00;;;;;;5049830;28;20397;-70
2022/04/19 14:39:43;;;;;;;;;;;21.00;49.90;;;;;;5034176;28;19961;-69
2022/04/19 14:42:09;;;;;;;;;;;21.30;50.40;;;;;;5034022;28;20337;-71
2022/04/19 14:44:34;;;;;;;;;;;21.30;49.50;;;;;;5034462;28;19909;-70
2022/04/19 14:47:00;;;;;;;;;;;21.50;49.70;;;;;;5034702;28;19909;-70
2022/04/19 14:49:25;;;;;;;;;;;21.50;49.10;;;;;;5034718;28;19928;-71
2022/04/19 14:54:35;;;;;;;;;;;21.50;48.90;;;;;;5034178;28;19916;-70
2022/04/19 14:57:00;;;;;;;;;;;21.60;48.90;;;;;;5034200;28;20382;-70
2022/04/19 14:59:26;;;;;;;;;;;21.80;48.70;;;;;;5034080;28;19916;-71
2022/04/19 15:01:51;;;;;;;;;;;22.00;48.10;;;;;;5034858;28;19909;-72
2022/04/19 15:04:16;;;;;;;;;;;22.10;48.10;;;;;;5034337;28;20367;-70
2022/04/19 15:06:42;;;;;;;;;;;22.20;47.90;;;;;;5034352;28;20339;-70
2022/04/19 15:09:08;;;;;;;;;;;22.20;47.50;;;;;;5049541;28;19913;-70
2022/04/19 15:11:33;;;;;;;;;;;22.20;47.90;;;;;;5034424;28;20039;-71
2022/04/19 15:13:59;;;;;;;;;;;22.20;46.90;;;;;;5034198;28;19948;-69
2022/04/19 15:16:25;;;;;;;;;;;22.20;47.00;;;;;;5033974;28;19910;-71
2022/04/19 15:18:50;;;;;;;;;;;22.40;46.90;;;;;;5034051;28;19916;-71
2022/04/19 15:21:16;;;;;;;;;;;22.60;46.60;;;;;;5034007;28;19996;-71
2022/04/19 15:23:41;;;;;;;;;;;22.70;45.60;;;;;;5033891;28;19913;-71
2022/04/19 15:26:07;;;;;;;;;;;22.00;45.20;;;;;;5034145;28;19909;-71